createdAt,value
2022-11-17T00:01:04.676Z,96696.41
2022-11-17T00:02:06.056Z,96689.25
2022-11-17T00:03:07.848Z,96693.09
2022-11-17T00:04:09.248Z,96691.22
2022-11-17T00:05:10.598Z,96689.78
2022-11-17T00:06:12.065Z,96684.06
2022-11-17T00:07:13.425Z,96673.84
2022-11-17T00:08:15.074Z,96674.59
2022-11-17T00:09:16.405Z,96674.59
2022-11-17T00:10:17.813Z,96672.38
2022-11-17T00:11:19.160Z,96670.50
2022-11-17T00:12:22.630Z,96660.63
2022-11-17T00:13:24.330Z,96660.63
2022-11-17T00:14:25.643Z,96658.75
2022-11-17T00:15:27.012Z,96649.38
2022-11-17T00:16:28.352Z,96655.34
2022-11-17T00:17:29.691Z,96642.13
2022-11-17T00:18:31.046Z,96644.31
2022-11-17T00:19:32.382Z,96647.72
2022-11-17T00:20:33.692Z,96645.59
2022-11-17T00:21:35.184Z,96649.00
2022-11-17T00:22:36.502Z,96651.25
2022-11-17T00:23:37.884Z,96642.13
2022-11-17T00:24:39.236Z,96642.13
2022-11-17T00:25:40.546Z,96635.72
2022-11-17T00:26:41.888Z,96627.47
2022-11-17T00:27:43.441Z,96627.47
2022-11-17T00:28:44.843Z,96623.94
2022-11-17T00:29:46.215Z,96624.28
2022-11-17T00:30:47.552Z,96631.09
2022-11-17T00:31:48.908Z,96635.72
2022-11-17T00:32:50.226Z,96635.28
2022-11-17T00:33:51.593Z,96633.09
2022-11-17T00:34:52.951Z,96638.38
2022-11-17T00:35:54.841Z,96638.25
2022-11-17T00:36:56.928Z,96643.13
2022-11-17T00:37:58.267Z,96640.47
2022-11-17T00:38:59.580Z,96645.31
2022-11-17T00:40:01.479Z,96640.81
2022-11-17T00:41:02.917Z,96639.25
2022-11-17T00:42:04.300Z,96640.81
2022-11-17T00:43:05.640Z,96640.47
2022-11-17T00:44:07.508Z,96635.19
2022-11-17T00:45:09.057Z,96633.31
2022-11-17T00:46:10.433Z,96637.91
2022-11-17T00:47:11.817Z,96628.81
2022-11-17T00:48:13.132Z,96639.38
2022-11-17T00:49:14.445Z,96633.75
2022-11-17T00:50:18.825Z,96632.22
2022-11-17T00:51:20.298Z,96632.88
2022-11-17T00:52:21.605Z,96632.88
2022-11-17T00:53:22.908Z,96630.22
2022-11-17T00:54:24.313Z,96634.50
2022-11-17T00:55:25.676Z,96631.88
2022-11-17T00:56:27.657Z,96620.97
2022-11-17T00:57:29.015Z,96624.38
2022-11-17T00:58:30.425Z,96624.72
2022-11-17T00:59:31.780Z,96619.88
2022-11-17T01:00:33.136Z,96619.88
2022-11-17T01:01:34.675Z,96623.03
2022-11-17T01:02:36.099Z,96621.06
2022-11-17T01:03:38.063Z,96621.81
2022-11-17T01:04:39.546Z,96619.88
2022-11-17T01:05:40.942Z,96618.34
2022-11-17T01:06:43.616Z,96609.63
2022-11-17T01:07:44.986Z,96608.09
2022-11-17T01:08:46.397Z,96606.22
2022-11-17T01:09:47.715Z,96595.31
2022-11-17T01:10:49.071Z,96595.09
2022-11-17T01:11:51.338Z,96588.78
2022-11-17T01:12:52.705Z,96588.44
2022-11-17T01:13:55.405Z,96590.84
2022-11-17T01:14:56.723Z,96593.13
2022-11-17T01:16:01.571Z,96584.78
2022-11-17T01:17:02.945Z,96590.06
2022-11-17T01:18:04.384Z,96585.56
2022-11-17T01:19:05.759Z,96586.66
2022-11-17T01:20:07.562Z,96587.19
2022-11-17T01:21:13.934Z,96582.75
2022-11-17T01:22:15.354Z,96586.53
2022-11-17T01:23:16.720Z,96583.09
2022-11-17T01:24:18.145Z,96580.78
2022-11-17T01:25:19.514Z,96573.63
2022-11-17T01:26:22.083Z,96570.66
2022-11-17T01:27:23.420Z,96570.47
2022-11-17T01:28:24.801Z,96570.81
2022-11-17T01:29:26.132Z,96566.22
2022-11-17T01:30:27.588Z,96566.13
2022-11-17T01:31:29.832Z,96556.31
2022-11-17T01:32:31.211Z,96558.97
2022-11-17T01:33:32.683Z,96556.41
2022-11-17T01:34:34.332Z,96553.00
2022-11-17T01:35:35.673Z,96560.84
2022-11-17T01:36:38.237Z,96554.00
2022-11-17T01:37:39.615Z,96558.09
2022-11-17T01:38:41.281Z,96546.66
2022-11-17T01:39:42.636Z,96548.97
2022-11-17T01:40:44.008Z,96550.84
2022-11-17T01:41:45.448Z,96547.88
2022-11-17T01:42:46.758Z,96538.06
2022-11-17T01:43:50.209Z,96548.53
2022-11-17T01:45:16.520Z,96544.38
2022-11-17T01:46:26.857Z,96545.81
2022-11-17T01:47:28.203Z,96543.09
2022-11-17T01:48:29.577Z,96539.84
2022-11-17T01:49:30.978Z,96533.09
2022-11-17T01:50:40.382Z,96533.44
2022-11-17T01:51:45.068Z,96537.97
2022-11-17T01:52:47.072Z,96539.41
2022-11-17T01:53:49.453Z,96531.16
2022-11-17T01:54:52.242Z,96540.19
2022-11-17T01:55:59.335Z,96535.34
2022-11-17T01:57:02.819Z,96536.09
2022-11-17T01:58:10.431Z,96536.50
2022-11-17T01:59:18.528Z,96529.69
2022-11-17T02:00:19.925Z,96534.72
2022-11-17T02:01:21.302Z,96524.50
2022-11-17T02:02:23.330Z,96519.22
2022-11-17T02:03:26.041Z,96509.06
2022-11-17T02:04:32.375Z,96513.25
2022-11-17T02:05:50.961Z,96507.97
2022-11-17T02:06:55.943Z,96502.69
2022-11-17T02:07:59.536Z,96496.63
2022-11-17T02:09:02.610Z,96490.91
2022-11-17T02:10:05.220Z,96497.72
2022-11-17T02:11:10.250Z,96488.94
2022-11-17T02:12:13.095Z,96482.22
2022-11-17T02:13:14.565Z,96474.28
2022-11-17T02:14:15.909Z,96474.63
2022-11-17T02:15:17.272Z,96465.94
2022-11-17T02:16:18.599Z,96463.63
2022-11-17T02:17:21.051Z,96464.31
2022-11-17T02:18:22.399Z,96464.81
2022-11-17T02:19:25.097Z,96461.72
2022-11-17T02:20:29.525Z,96464.81
2022-11-17T02:21:51.101Z,96460.31
2022-11-17T02:23:07.169Z,96457.50
2022-11-17T02:24:14.217Z,96455.09
2022-11-17T02:25:15.601Z,96455.09
2022-11-17T02:26:19.680Z,96454.25
2022-11-17T02:27:37.743Z,96449.28
2022-11-17T02:28:48.595Z,96444.34
2022-11-17T02:30:03.459Z,96439.16
2022-11-17T02:31:13.737Z,96436.06
2022-11-17T02:32:41.522Z,96441.34
2022-11-17T02:33:46.031Z,96445.38
2022-11-17T02:34:51.641Z,96436.59
2022-11-17T02:36:01.087Z,96433.34
2022-11-17T02:37:09.560Z,96426.53
2022-11-17T02:38:17.401Z,96428.13
2022-11-17T02:39:21.093Z,96426.19
2022-11-17T02:40:29.807Z,96417.41
2022-11-17T02:41:36.068Z,96416.28
2022-11-17T02:42:42.375Z,96423.81
2022-11-17T02:43:49.001Z,96406.41
2022-11-17T02:44:57.328Z,96405.88
2022-11-17T02:46:04.756Z,96397.97
2022-11-17T02:47:27.278Z,96397.19
2022-11-17T02:48:31.997Z,96378.63
2022-11-17T02:49:36.337Z,96378.69
2022-11-17T02:50:38.410Z,96374.44
2022-11-17T02:51:40.829Z,96375.47
2022-11-17T02:52:42.335Z,96382.88
2022-11-17T02:53:43.924Z,96388.50
2022-11-17T02:54:45.337Z,96390.03
2022-11-17T02:55:50.779Z,96394.16
2022-11-17T02:56:52.261Z,96389.28
2022-11-17T02:57:53.591Z,96384.25
2022-11-17T02:58:57.991Z,96386.22
2022-11-17T03:00:01.765Z,96375.66
2022-11-17T03:01:10.376Z,96374.88
2022-11-17T03:02:30.317Z,96372.66
2022-11-17T03:03:35.076Z,96379.06
2022-11-17T03:04:42.961Z,96382.81
2022-11-17T03:05:56.731Z,96380.84
2022-11-17T03:07:16.935Z,96388.66
2022-11-17T03:08:18.292Z,96396.94
2022-11-17T03:09:46.029Z,96403.41
2022-11-17T03:10:50.332Z,96394.66
2022-11-17T03:12:14.670Z,96409.38
2022-11-17T03:13:19.145Z,96424.47
2022-11-17T03:14:46.880Z,96420.72
2022-11-17T03:16:07.023Z,96426.88
2022-11-17T03:17:13.661Z,96432.91
2022-11-17T03:18:14.956Z,96434.09
2022-11-17T03:19:18.858Z,96432.56
2022-11-17T03:20:23.593Z,96425.00
2022-11-17T03:21:27.953Z,96425.84
2022-11-17T03:22:34.071Z,96423.72
2022-11-17T03:23:55.018Z,96415.94
2022-11-17T03:24:59.423Z,96417.81
2022-11-17T03:26:02.345Z,96408.47
2022-11-17T03:27:08.249Z,96413.00
2022-11-17T03:28:11.096Z,96414.53
2022-11-17T03:29:14.852Z,96411.19
2022-11-17T03:30:17.329Z,96416.13
2022-11-17T03:31:19.521Z,96411.72
2022-11-17T03:32:22.489Z,96406.41
2022-11-17T03:33:25.491Z,96415.88
2022-11-17T03:34:29.149Z,96415.53
2022-11-17T03:35:33.566Z,96403.09
2022-11-17T03:36:37.124Z,96393.63
2022-11-17T03:37:42.081Z,96389.19
2022-11-17T03:38:51.724Z,96377.16
2022-11-17T03:39:54.955Z,96379.47
2022-11-17T03:40:59.267Z,96385.63
2022-11-17T03:42:08.056Z,96381.91
2022-11-17T03:43:12.041Z,96394.38
2022-11-17T03:44:14.748Z,96386.03
2022-11-17T03:45:19.632Z,96389.03
2022-11-17T03:46:22.063Z,96393.44
2022-11-17T03:47:25.962Z,96394.22
2022-11-17T03:48:30.343Z,96384.75
2022-11-17T03:49:44.834Z,96388.50
2022-11-17T03:50:51.811Z,96377.50
2022-11-17T03:51:53.288Z,96387.72
2022-11-17T03:52:54.790Z,96381.69
2022-11-17T03:53:56.406Z,96386.97
2022-11-17T03:54:58.028Z,96381.34
2022-11-17T03:56:02.403Z,96386.63
2022-11-17T03:57:06.731Z,96386.97
2022-11-17T03:58:12.701Z,96390.72
2022-11-17T03:59:17.417Z,96390.72
2022-11-17T04:00:19.290Z,96387.47
2022-11-17T04:01:22.648Z,96382.53
2022-11-17T04:02:24.758Z,96388.16
2022-11-17T04:03:32.861Z,96380.25
2022-11-17T04:04:34.417Z,96381.34
2022-11-17T04:05:35.785Z,96378.34
2022-11-17T04:06:37.158Z,96378.78
2022-11-17T04:07:45.917Z,96372.81
2022-11-17T04:08:47.340Z,96366.41
2022-11-17T04:09:48.714Z,96370.56
2022-11-17T04:10:50.044Z,96373.22
2022-11-17T04:11:51.382Z,96372.41
2022-11-17T04:12:53.333Z,96371.53
2022-11-17T04:13:54.711Z,96374.50
2022-11-17T04:14:56.037Z,96377.69
2022-11-17T04:15:57.513Z,96378.44
2022-11-17T04:16:58.820Z,96379.13
2022-11-17T04:18:00.189Z,96385.25
2022-11-17T04:19:01.525Z,96373.56
2022-11-17T04:20:02.948Z,96381.25
2022-11-17T04:21:04.392Z,96371.44
2022-11-17T04:22:05.706Z,96373.81
2022-11-17T04:23:13.942Z,96367.84
2022-11-17T04:24:15.357Z,96374.25
2022-11-17T04:25:16.674Z,96380.38
2022-11-17T04:26:18.021Z,96374.31
2022-11-17T04:27:19.366Z,96378.81
2022-11-17T04:28:21.283Z,96382.22
2022-11-17T04:29:22.612Z,96382.31
2022-11-17T04:30:23.924Z,96378.16
2022-11-17T04:31:28.036Z,96380.44
2022-11-17T04:32:29.377Z,96377.78
2022-11-17T04:33:30.843Z,96379.66
2022-11-17T04:34:32.182Z,96376.34
2022-11-17T04:35:33.525Z,96377.97
2022-11-17T04:36:38.589Z,96376.84
2022-11-17T04:37:39.914Z,96371.91
2022-11-17T04:38:42.037Z,96379.84
2022-11-17T04:39:44.452Z,96372.66
2022-11-17T04:40:45.807Z,96375.63
2022-11-17T04:41:47.202Z,96377.88
2022-11-17T04:42:48.548Z,96377.53
2022-11-17T04:43:50.226Z,96378.63
2022-11-17T04:44:51.620Z,96379.50
2022-11-17T04:45:57.728Z,96379.13
2022-11-17T04:46:59.164Z,96376.66
2022-11-17T04:48:00.549Z,96383.03
2022-11-17T04:49:02.436Z,96375.47
2022-11-17T04:50:03.875Z,96376.56
2022-11-17T04:51:05.316Z,96379.22
2022-11-17T04:52:06.641Z,96378.00
2022-11-17T04:53:07.986Z,96384.09
2022-11-17T04:54:10.193Z,96380.47
2022-11-17T04:55:11.543Z,96377.81
2022-11-17T04:56:12.926Z,96384.31
2022-11-17T04:57:14.296Z,96372.53
2022-11-17T04:58:15.655Z,96376.31
2022-11-17T04:59:17.313Z,96378.25
2022-11-17T05:00:18.882Z,96375.94
2022-11-17T05:01:21.151Z,96376.72
2022-11-17T05:02:22.540Z,96383.47
2022-11-17T05:03:23.880Z,96379.72
2022-11-17T05:04:25.600Z,96382.28
2022-11-17T05:05:27.000Z,96382.28
2022-11-17T05:06:29.547Z,96388.31
2022-11-17T05:07:30.946Z,96385.69
2022-11-17T05:08:32.361Z,96380.38
2022-11-17T05:09:33.759Z,96378.88
2022-11-17T05:10:35.215Z,96381.50
2022-11-17T05:11:36.569Z,96375.47
2022-11-17T05:12:37.941Z,96389.44
2022-11-17T05:13:39.377Z,96402.34
2022-11-17T05:14:40.740Z,96400.78
2022-11-17T05:15:42.165Z,96401.13
2022-11-17T05:16:43.518Z,96398.84
2022-11-17T05:17:44.855Z,96401.91
2022-11-17T05:18:46.180Z,96403.03
2022-11-17T05:19:48.057Z,96407.19
2022-11-17T05:20:49.420Z,96405.75
2022-11-17T05:21:50.764Z,96408.31
2022-11-17T05:22:52.124Z,96405.31
2022-11-17T05:23:53.439Z,96400.38
2022-11-17T05:24:55.241Z,96391.75
2022-11-17T05:25:56.589Z,96397.38
2022-11-17T05:26:57.954Z,96400.03
2022-11-17T05:27:59.306Z,96395.00
2022-11-17T05:29:04.545Z,96393.22
2022-11-17T05:30:07.300Z,96395.09
2022-11-17T05:31:08.861Z,96385.94
2022-11-17T05:32:10.205Z,96385.63
2022-11-17T05:33:11.529Z,96393.88
2022-11-17T05:34:13.712Z,96392.72
2022-11-17T05:35:15.111Z,96386.97
2022-11-17T05:36:16.805Z,96390.75
2022-11-17T05:37:18.135Z,96382.13
2022-11-17T05:38:19.553Z,96382.81
2022-11-17T05:39:21.050Z,96386.94
2022-11-17T05:40:22.457Z,96383.09
2022-11-17T05:41:24.201Z,96384.28
2022-11-17T05:42:25.633Z,96388.81
2022-11-17T05:43:27.117Z,96387.34
2022-11-17T05:44:28.513Z,96388.44
2022-11-17T05:45:29.895Z,96385.47
2022-11-17T05:46:31.374Z,96383.56
2022-11-17T05:47:32.722Z,96390.84
2022-11-17T05:48:34.131Z,96381.38
2022-11-17T05:49:35.511Z,96389.38
2022-11-17T05:50:36.885Z,96385.94
2022-11-17T05:51:38.275Z,96390.91
2022-11-17T05:52:39.640Z,96392.44
2022-11-17T05:53:41.021Z,96394.41
2022-11-17T05:54:42.422Z,96390.28
2022-11-17T05:55:43.834Z,96394.94
2022-11-17T05:56:56.769Z,96398.13
2022-11-17T05:58:01.453Z,96390.59
2022-11-17T05:59:26.351Z,96389.91
2022-11-17T06:00:29.566Z,96381.63
2022-11-17T06:01:34.913Z,96376.25
2022-11-17T06:02:41.161Z,96380.78
2022-11-17T06:03:46.336Z,96378.97
2022-11-17T06:04:49.283Z,96372.84
2022-11-17T06:05:51.234Z,96380.00
2022-11-17T06:06:54.209Z,96381.88
2022-11-17T06:07:55.641Z,96380.69
2022-11-17T06:08:57.033Z,96385.31
2022-11-17T06:09:58.442Z,96385.78
2022-11-17T06:10:59.822Z,96390.31
2022-11-17T06:12:05.891Z,96392.88
2022-11-17T06:13:07.829Z,96386.41
2022-11-17T06:14:09.219Z,96386.78
2022-11-17T06:15:10.590Z,96383.00
2022-11-17T06:16:13.573Z,96381.97
2022-11-17T06:17:22.844Z,96381.53
2022-11-17T06:18:26.574Z,96386.06
2022-11-17T06:19:31.193Z,96380.09
2022-11-17T06:20:34.845Z,96383.50
2022-11-17T06:21:56.799Z,96380.94
2022-11-17T06:23:00.381Z,96372.75
2022-11-17T06:24:03.404Z,96371.69
2022-11-17T06:25:05.523Z,96374.72
2022-11-17T06:26:08.837Z,96386.44
2022-11-17T06:27:15.431Z,96376.59
2022-11-17T06:28:19.496Z,96387.28
2022-11-17T06:29:20.896Z,96378.97
2022-11-17T06:30:22.354Z,96381.34
2022-11-17T06:31:25.276Z,96381.75
2022-11-17T06:32:27.555Z,96381.41
2022-11-17T06:33:30.777Z,96385.94
2022-11-17T06:34:32.122Z,96386.28
2022-11-17T06:35:33.912Z,96401.00
2022-11-17T06:36:35.293Z,96398.75
2022-11-17T06:37:36.632Z,96391.94
2022-11-17T06:38:37.980Z,96393.53
2022-11-17T06:39:39.369Z,96403.75
2022-11-17T06:40:40.752Z,96405.41
2022-11-17T06:41:42.067Z,96402.00
2022-11-17T06:42:43.506Z,96401.88
2022-11-17T06:43:44.884Z,96404.13
2022-11-17T06:44:46.199Z,96410.94
2022-11-17T06:45:47.763Z,96416.94
2022-11-17T06:46:49.491Z,96418.88
2022-11-17T06:47:52.650Z,96421.06
2022-11-17T06:48:54.329Z,96418.75
2022-11-17T06:49:55.647Z,96418.41
2022-11-17T06:50:57.007Z,96419.25
2022-11-17T06:51:58.356Z,96414.47
2022-11-17T06:53:00.719Z,96425.06
2022-11-17T06:54:04.979Z,96426.94
2022-11-17T06:55:06.740Z,96419.31
2022-11-17T06:56:08.171Z,96408.72
2022-11-17T06:57:09.581Z,96404.28
2022-11-17T06:58:11.065Z,96396.00
2022-11-17T06:59:12.507Z,96399.06
2022-11-17T07:00:14.226Z,96402.13
2022-11-17T07:01:15.938Z,96391.47
2022-11-17T07:02:17.393Z,96387.31
2022-11-17T07:03:18.793Z,96380.13
2022-11-17T07:04:20.241Z,96385.19
2022-11-17T07:05:21.683Z,96389.31
2022-11-17T07:06:23.096Z,96391.59
2022-11-17T07:07:24.539Z,96385.97
2022-11-17T07:08:26.074Z,96389.31
2022-11-17T07:09:27.430Z,96393.84
2022-11-17T07:10:29.718Z,96392.31
2022-11-17T07:11:31.192Z,96398.41
2022-11-17T07:12:33.222Z,96392.34
2022-11-17T07:13:35.229Z,96395.44
2022-11-17T07:14:36.652Z,96393.19
2022-11-17T07:15:38.060Z,96396.69
2022-11-17T07:16:41.311Z,96392.50
2022-11-17T07:17:42.700Z,96393.97
2022-11-17T07:18:44.111Z,96387.56
2022-11-17T07:19:45.529Z,96388.66
2022-11-17T07:20:47.717Z,96387.91
2022-11-17T07:21:49.104Z,96387.13
2022-11-17T07:22:50.543Z,96383.38
2022-11-17T07:24:04.626Z,96396.28
2022-11-17T07:26:24.771Z,96391.78
2022-11-17T07:27:26.207Z,96403.94
2022-11-17T07:28:28.466Z,96405.09
2022-11-17T07:29:29.908Z,96398.69
2022-11-17T07:30:31.330Z,96404.81
2022-11-17T07:31:34.524Z,96403.06
2022-11-17T07:32:36.308Z,96398.94
2022-11-17T07:33:37.728Z,96393.34
2022-11-17T07:34:39.403Z,96396.38
2022-11-17T07:35:40.782Z,96394.13
2022-11-17T07:36:42.236Z,96393.44
2022-11-17T07:37:43.658Z,96398.03
2022-11-17T07:38:45.377Z,96396.16
2022-11-17T07:39:46.804Z,96397.66
2022-11-17T07:40:48.240Z,96405.25
2022-11-17T07:41:49.704Z,96399.56
2022-11-17T07:42:51.099Z,96398.44
2022-11-17T07:43:53.145Z,96407.16
2022-11-17T07:44:54.531Z,96398.50
2022-11-17T07:45:56.300Z,96397.38
2022-11-17T07:46:57.746Z,96394.38
2022-11-17T07:48:00.197Z,96396.69
2022-11-17T07:49:01.562Z,96404.63
2022-11-17T07:50:03.056Z,96398.56
2022-11-17T07:51:04.786Z,96393.28
2022-11-17T07:52:06.250Z,96398.22
2022-11-17T07:53:07.635Z,96399.34
2022-11-17T07:54:09.064Z,96397.44
2022-11-17T07:55:10.445Z,96398.22
2022-11-17T07:56:12.150Z,96394.06
2022-11-17T07:57:14.374Z,96395.63
2022-11-17T07:58:15.814Z,96403.63
2022-11-17T07:59:21.194Z,96396.09
2022-11-17T08:00:22.963Z,96391.56
2022-11-17T08:01:24.393Z,96396.50
2022-11-17T08:02:25.780Z,96397.25
2022-11-17T08:03:27.218Z,96397.69
2022-11-17T08:04:28.632Z,96393.22
2022-11-17T08:05:30.712Z,96395.06
2022-11-17T08:06:32.128Z,96393.97
2022-11-17T08:07:33.590Z,96398.09
2022-11-17T08:08:35.878Z,96392.72
2022-11-17T08:09:37.536Z,96393.25
2022-11-17T08:10:38.992Z,96395.50
2022-11-17T08:11:40.444Z,96401.63
2022-11-17T08:12:41.871Z,96403.44
2022-11-17T08:13:43.436Z,96409.97
2022-11-17T08:14:44.888Z,96402.38
2022-11-17T08:15:46.256Z,96402.47
2022-11-17T08:16:47.664Z,96405.09
2022-11-17T08:17:55.934Z,96399.75
2022-11-17T08:18:57.633Z,96409.63
2022-11-17T08:19:59.045Z,96410.41
2022-11-17T08:21:05.159Z,96409.63
2022-11-17T08:22:06.587Z,96413.47
2022-11-17T08:23:07.994Z,96414.97
2022-11-17T08:24:11.796Z,96415.75
2022-11-17T08:25:13.268Z,96405.97
2022-11-17T08:26:14.678Z,96402.63
2022-11-17T08:27:16.092Z,96396.94
2022-11-17T08:28:17.544Z,96397.34
2022-11-17T08:29:19.160Z,96391.72
2022-11-17T08:30:20.683Z,96391.34
2022-11-17T08:31:22.097Z,96397.41
2022-11-17T08:32:23.470Z,96391.78
2022-11-17T08:33:24.914Z,96405.44
2022-11-17T08:34:26.353Z,96401.66
2022-11-17T08:35:30.689Z,96390.66
2022-11-17T08:36:34.414Z,96388.03
2022-11-17T08:37:39.904Z,96394.50
2022-11-17T08:38:41.289Z,96388.06
2022-11-17T08:39:42.733Z,96393.13
2022-11-17T08:40:44.248Z,96395.84
2022-11-17T08:41:45.672Z,96394.34
2022-11-17T08:42:47.468Z,96401.25
2022-11-17T08:43:50.615Z,96401.66
2022-11-17T08:44:52.300Z,96392.97
2022-11-17T08:45:53.828Z,96394.16
2022-11-17T08:46:55.211Z,96391.91
2022-11-17T08:47:56.655Z,96396.94
2022-11-17T08:48:58.034Z,96395.81
2022-11-17T08:49:59.504Z,96397.03
2022-11-17T08:51:05.023Z,96399.34
2022-11-17T08:52:06.450Z,96398.59
2022-11-17T08:53:12.842Z,96392.53
2022-11-17T08:54:14.307Z,96409.22
2022-11-17T08:55:15.876Z,96399.38
2022-11-17T08:56:18.492Z,96405.81
2022-11-17T08:57:19.938Z,96407.75
2022-11-17T08:58:21.320Z,96414.97
2022-11-17T08:59:22.749Z,96417.94
2022-11-17T09:00:24.168Z,96411.84
2022-11-17T09:01:25.632Z,96411.16
2022-11-17T09:02:27.039Z,96416.09
2022-11-17T09:03:28.431Z,96414.53
2022-11-17T09:04:29.816Z,96419.06
2022-11-17T09:05:31.255Z,96412.50
2022-11-17T09:06:32.673Z,96420.13
2022-11-17T09:07:35.017Z,96419.34
2022-11-17T09:08:51.871Z,96417.06
2022-11-17T09:09:53.375Z,96425.06
2022-11-17T09:10:54.739Z,96420.53
2022-11-17T09:11:56.127Z,96426.22
2022-11-17T09:12:57.996Z,96428.94
2022-11-17T09:13:59.425Z,96429.38
2022-11-17T09:15:00.818Z,96428.69
2022-11-17T09:16:06.575Z,96435.50
2022-11-17T09:17:08.031Z,96439.81
2022-11-17T09:18:09.404Z,96436.00
2022-11-17T09:19:10.831Z,96433.06
2022-11-17T09:20:12.216Z,96433.56
2022-11-17T09:21:14.917Z,96437.00
2022-11-17T09:22:16.302Z,96440.84
2022-11-17T09:23:17.634Z,96441.63
2022-11-17T09:24:19.054Z,96439.38
2022-11-17T09:25:20.388Z,96437.53
2022-11-17T09:26:21.909Z,96439.06
2022-11-17T09:27:23.268Z,96430.31
2022-11-17T09:28:25.290Z,96437.56
2022-11-17T09:29:26.677Z,96432.97
2022-11-17T09:30:28.090Z,96432.28
2022-11-17T09:31:29.840Z,96444.03
2022-11-17T09:32:33.444Z,96443.72
2022-11-17T09:33:35.377Z,96444.16
2022-11-17T09:34:36.740Z,96442.19
2022-11-17T09:35:38.180Z,96448.28
2022-11-17T09:36:39.569Z,96442.97
2022-11-17T09:37:40.934Z,96448.59
2022-11-17T09:38:42.376Z,96453.16
2022-11-17T09:39:43.717Z,96453.53
2022-11-17T09:40:45.351Z,96452.00
2022-11-17T09:41:48.011Z,96453.97
2022-11-17T09:42:49.433Z,96453.97
2022-11-17T09:43:54.522Z,96457.34
2022-11-17T09:44:55.855Z,96462.69
2022-11-17T09:46:11.791Z,96455.47
2022-11-17T09:47:19.344Z,96460.06
2022-11-17T09:48:40.783Z,96462.03
2022-11-17T09:49:58.433Z,96462.84
2022-11-17T09:51:02.108Z,96470.03
2022-11-17T09:52:10.762Z,96460.09
2022-11-17T09:53:15.359Z,96460.88
2022-11-17T09:54:21.493Z,96465.41
2022-11-17T09:55:22.892Z,96470.34
2022-11-17T09:56:26.140Z,96471.88
2022-11-17T09:57:36.638Z,96473.81
2022-11-17T09:58:41.100Z,96471.16
2022-11-17T09:59:42.539Z,96466.59
2022-11-17T10:00:45.487Z,96463.56
2022-11-17T10:01:46.926Z,96472.31
2022-11-17T10:02:48.699Z,96474.19
2022-11-17T10:03:51.158Z,96470.78
2022-11-17T10:04:52.703Z,96464.72
2022-11-17T10:05:55.055Z,96468.50
2022-11-17T10:06:57.246Z,96466.63
2022-11-17T10:08:11.146Z,96478.38
2022-11-17T10:09:12.505Z,96485.22
2022-11-17T10:10:19.830Z,96479.16
2022-11-17T10:11:21.250Z,96488.69
2022-11-17T10:12:25.587Z,96483.81
2022-11-17T10:13:30.629Z,96482.00
2022-11-17T10:14:33.945Z,96479.75
2022-11-17T10:15:47.382Z,96471.81
2022-11-17T10:16:55.884Z,96475.66
2022-11-17T10:17:57.294Z,96476.44
2022-11-17T10:18:58.779Z,96474.22
2022-11-17T10:20:00.162Z,96476.56
2022-11-17T10:21:02.203Z,96475.47
2022-11-17T10:22:03.578Z,96467.84
2022-11-17T10:23:05.111Z,96471.66
2022-11-17T10:24:06.680Z,96468.31
2022-11-17T10:25:20.725Z,96470.25
2022-11-17T10:26:22.080Z,96477.13
2022-11-17T10:27:25.033Z,96483.59
2022-11-17T10:28:31.169Z,96479.44
2022-11-17T10:29:32.726Z,96466.94
2022-11-17T10:30:34.240Z,96467.34
2022-11-17T10:31:42.997Z,96470.00
2022-11-17T10:32:48.796Z,96470.03
2022-11-17T10:33:50.701Z,96474.22
2022-11-17T10:34:52.234Z,96478.78
2022-11-17T10:35:56.428Z,96478.03
2022-11-17T10:37:02.404Z,96464.72
2022-11-17T10:38:12.691Z,96470.06
2022-11-17T10:39:31.692Z,96469.31
2022-11-17T10:40:38.994Z,96473.50
2022-11-17T10:41:44.187Z,96474.69
2022-11-17T10:42:53.899Z,96467.44
2022-11-17T10:44:03.044Z,96471.63
2022-11-17T10:45:05.153Z,96473.16
2022-11-17T10:46:13.123Z,96481.91
2022-11-17T10:47:27.884Z,96473.16
2022-11-17T10:48:30.888Z,96482.28
2022-11-17T10:49:36.463Z,96475.44
2022-11-17T10:50:37.896Z,96473.50
2022-11-17T10:51:39.238Z,96472.06
2022-11-17T10:52:40.637Z,96474.31
2022-11-17T10:53:46.164Z,96486.13
2022-11-17T10:54:48.307Z,96478.19
2022-11-17T10:56:10.008Z,96479.31
2022-11-17T10:57:22.714Z,96474.03
2022-11-17T10:58:27.880Z,96472.47
2022-11-17T10:59:33.249Z,96474.00
2022-11-17T11:00:36.138Z,96464.84
2022-11-17T11:01:39.257Z,96464.50
2022-11-17T11:02:40.629Z,96460.34
2022-11-17T11:03:48.972Z,96475.56
2022-11-17T11:05:04.620Z,96464.16
2022-11-17T11:06:26.268Z,96478.97
2022-11-17T11:07:27.765Z,96472.50
2022-11-17T11:08:35.091Z,96475.94
2022-11-17T11:09:59.550Z,96480.47
2022-11-17T11:11:02.714Z,96478.22
2022-11-17T11:12:07.294Z,96471.75
2022-11-17T11:13:27.566Z,96475.94
2022-11-17T11:14:36.687Z,96470.63
2022-11-17T11:15:38.575Z,96473.00
2022-11-17T11:16:45.042Z,96471.50
2022-11-17T11:17:49.588Z,96472.31
2022-11-17T11:18:52.049Z,96479.56
2022-11-17T11:19:53.881Z,96479.25
2022-11-17T11:20:55.270Z,96488.44
2022-11-17T11:22:20.812Z,96473.59
2022-11-17T11:23:28.552Z,96470.94
2022-11-17T11:24:36.490Z,96474.41
2022-11-17T11:25:41.390Z,96467.13
2022-11-17T11:26:42.771Z,96469.78
2022-11-17T11:28:02.543Z,96467.09
2022-11-17T11:29:42.693Z,96467.47
2022-11-17T11:30:46.546Z,96460.97
2022-11-17T11:31:58.129Z,96464.03
2022-11-17T11:33:13.700Z,96469.69
2022-11-17T11:34:27.221Z,96466.25
2022-11-17T11:35:28.554Z,96471.94
2022-11-17T11:36:48.400Z,96469.31
2022-11-17T11:38:02.053Z,96472.00
2022-11-17T11:39:18.073Z,96473.53
2022-11-17T11:40:25.750Z,96482.25
2022-11-17T11:41:45.275Z,96485.69
2022-11-17T11:42:56.158Z,96488.34
2022-11-17T11:44:15.906Z,96479.25
2022-11-17T11:45:20.122Z,96483.78
2022-11-17T11:46:21.430Z,96489.88
2022-11-17T11:47:34.094Z,96493.31
2022-11-17T11:48:36.963Z,96494.06
2022-11-17T11:49:56.460Z,96491.03
2022-11-17T11:50:58.826Z,96494.47
2022-11-17T11:52:02.469Z,96494.88
2022-11-17T11:53:03.833Z,96500.19
2022-11-17T11:54:10.282Z,96498.28
2022-11-17T11:55:18.923Z,96501.38
2022-11-17T11:56:38.522Z,96496.03
2022-11-17T11:57:45.853Z,96502.16
2022-11-17T11:58:57.036Z,96500.69
2022-11-17T12:00:06.241Z,96502.59
2022-11-17T12:01:08.374Z,96497.31
2022-11-17T12:02:12.887Z,96489.34
2022-11-17T12:03:29.441Z,96494.25
2022-11-17T12:04:41.754Z,96494.28
2022-11-17T12:06:07.497Z,96493.47
2022-11-17T12:07:08.942Z,96500.63
2022-11-17T12:08:33.531Z,96496.41
2022-11-17T12:09:53.502Z,96491.81
2022-11-17T12:11:01.491Z,96490.28
2022-11-17T12:12:07.726Z,96488.34
2022-11-17T12:13:13.303Z,96487.53
2022-11-17T12:14:17.039Z,96482.22
2022-11-17T12:15:18.446Z,96498.19
2022-11-17T12:16:27.081Z,96495.19
2022-11-17T12:17:28.512Z,96495.53
2022-11-17T12:18:31.111Z,96479.53
2022-11-17T12:19:47.967Z,96478.34
2022-11-17T12:21:00.524Z,96486.75
2022-11-17T12:22:01.923Z,96497.75
2022-11-17T12:23:06.152Z,96488.25
2022-11-17T12:24:16.610Z,96488.22
2022-11-17T12:25:19.475Z,96495.09
2022-11-17T12:26:27.397Z,96493.56
2022-11-17T12:27:34.878Z,96497.00
2022-11-17T12:28:40.525Z,96493.22
2022-11-17T12:29:45.941Z,96498.56
2022-11-17T12:30:47.313Z,96494.00
2022-11-17T12:32:01.768Z,96487.91
2022-11-17T12:33:04.070Z,96503.91
2022-11-17T12:34:11.378Z,96504.31